createdAt,value
2022-12-27T00:00:16.845Z,100807.78
2022-12-27T00:03:19.880Z,100810.69
2022-12-27T00:06:26.802Z,100815.69
2022-12-27T00:09:29.336Z,100818.25
2022-12-27T00:12:31.861Z,100799.56
2022-12-27T00:15:35.611Z,100773.28
2022-12-27T00:18:39.352Z,100781.03
2022-12-27T00:21:41.842Z,100780.69
2022-12-27T00:24:44.486Z,100782.13
2022-12-27T00:27:47.008Z,100788.78
2022-12-27T00:30:55.338Z,100778.88
2022-12-27T00:34:01.294Z,100762.13
2022-12-27T00:37:03.799Z,100768.09
2022-12-27T00:40:07.086Z,100770.84
2022-12-27T00:43:09.599Z,100782.63
2022-12-27T00:46:12.593Z,100762.28
2022-12-27T00:49:15.280Z,100758.94
2022-12-27T00:52:17.704Z,100745.22
2022-12-27T00:55:20.169Z,100750.84
2022-12-27T00:58:22.607Z,100728.78
2022-12-27T01:01:27.027Z,100759.09
2022-12-27T01:04:30.773Z,100743.09
2022-12-27T01:07:33.344Z,100762.28
2022-12-27T01:10:40.981Z,100750.50
2022-12-27T01:13:45.043Z,100763.75
2022-12-27T01:16:47.573Z,100750.03
2022-12-27T01:19:50.029Z,100748.44
2022-12-27T01:22:54.590Z,100743.28
2022-12-27T01:26:04.871Z,100736.69
2022-12-27T01:29:07.354Z,100707.63
2022-12-27T01:32:09.876Z,100712.66
2022-12-27T01:35:12.337Z,100743.75
2022-12-27T01:38:15.305Z,100731.03
2022-12-27T01:41:40.756Z,100712.16
2022-12-27T01:44:49.804Z,100748.44
2022-12-27T01:48:30.736Z,100724.56
2022-12-27T01:51:33.119Z,100725.88
2022-12-27T01:54:35.899Z,100717.81
2022-12-27T01:57:39.047Z,100722.47
2022-12-27T02:00:46.717Z,100718.28
2022-12-27T02:04:07.815Z,100717.66
2022-12-27T02:07:10.429Z,100710.72
2022-12-27T02:10:13.343Z,100712.66
2022-12-27T02:13:16.830Z,100712.47
2022-12-27T02:16:19.886Z,100739.25
2022-12-27T02:19:28.611Z,100754.41
2022-12-27T02:22:53.762Z,100743.13
2022-12-27T02:25:58.931Z,100748.09
2022-12-27T02:29:15.261Z,100757.94
2022-12-27T02:32:43.514Z,100752.13
2022-12-27T02:35:56.653Z,100734.72
2022-12-27T02:39:01.760Z,100748.91
2022-12-27T02:42:24.903Z,100748.91
2022-12-27T02:45:49.835Z,100738.72
2022-12-27T02:49:15.668Z,100737.75
2022-12-27T02:52:55.329Z,100736.94
2022-12-27T02:56:26.878Z,100717.47
2022-12-27T03:00:09.120Z,100708.31
2022-12-27T03:03:44.873Z,100731.22
2022-12-27T03:07:13.681Z,100737.25
2022-12-27T03:10:37.546Z,100740.53
2022-12-27T03:14:05.945Z,100743.97
2022-12-27T03:17:30.484Z,100735.47
2022-12-27T03:20:53.649Z,100770.50
2022-12-27T03:24:16.698Z,100740.53
2022-12-27T03:27:28.448Z,100767.94
2022-12-27T03:30:49.891Z,100758.91
2022-12-27T03:34:04.487Z,100755.38
2022-12-27T03:37:44.049Z,100762.03
2022-12-27T03:41:06.468Z,100773.09
2022-12-27T03:44:24.290Z,100769.22
2022-12-27T03:47:53.633Z,100770.25
2022-12-27T03:51:04.986Z,100761.09
2022-12-27T03:54:17.091Z,100772.16
2022-12-27T03:57:26.477Z,100784.38
2022-12-27T04:00:30.073Z,100795.22
2022-12-27T04:03:32.601Z,100803.91
2022-12-27T04:06:35.558Z,100793.19
2022-12-27T04:09:56.693Z,100806.16
2022-12-27T04:13:17.475Z,100811.31
2022-12-27T04:16:38.776Z,100795.13
2022-12-27T04:19:59.863Z,100811.59
2022-12-27T04:23:21.221Z,100823.28
2022-12-27T04:26:42.341Z,100814.44
2022-12-27T04:30:03.725Z,100819.50
2022-12-27T04:33:24.939Z,100826.81
2022-12-27T04:36:27.509Z,100839.84
2022-12-27T04:39:29.971Z,100837.63
2022-12-27T04:42:51.399Z,100828.66
2022-12-27T04:46:13.809Z,100847.84
2022-12-27T04:49:41.042Z,100851.72
2022-12-27T04:53:02.418Z,100848.34
2022-12-27T04:56:05.876Z,100837.47
2022-12-27T04:59:27.527Z,100852.38
2022-12-27T05:02:30.011Z,100855.72
2022-12-27T05:05:34.083Z,100865.06
2022-12-27T05:08:56.049Z,100873.63
2022-12-27T05:12:17.387Z,100872.41
2022-12-27T05:15:20.466Z,100865.41
2022-12-27T05:18:23.676Z,100883.50
2022-12-27T05:21:26.371Z,100872.34
2022-12-27T05:24:47.381Z,100901.88
2022-12-27T05:27:49.923Z,100906.47
2022-12-27T05:30:52.305Z,100906.47
2022-12-27T05:33:55.019Z,100910.16
2022-12-27T05:36:57.436Z,100893.16
2022-12-27T05:40:00.184Z,100887.25
2022-12-27T05:43:03.720Z,100903.66
2022-12-27T05:46:15.402Z,100885.50
2022-12-27T05:49:18.205Z,100891.84
2022-12-27T05:52:20.728Z,100924.59
2022-12-27T05:55:23.255Z,100912.81
2022-12-27T05:58:26.268Z,100926.50
2022-12-27T06:01:29.014Z,100936.03
2022-12-27T06:04:31.565Z,100949.69
2022-12-27T06:07:35.877Z,100951.41
2022-12-27T06:10:38.971Z,100957.47
2022-12-27T06:13:43.168Z,100941.63
2022-12-27T06:16:45.683Z,100947.91
2022-12-27T06:19:53.793Z,100954.44
2022-12-27T06:23:00.207Z,100972.25
2022-12-27T06:26:12.199Z,100971.72
2022-12-27T06:29:15.003Z,100979.56
2022-12-27T06:32:17.873Z,100990.06
2022-12-27T06:35:20.815Z,100990.16
2022-12-27T06:38:23.740Z,100973.47
2022-12-27T06:41:26.627Z,100997.56
2022-12-27T06:44:29.308Z,100991.84
2022-12-27T06:47:32.307Z,100996.66
2022-12-27T06:50:36.052Z,101009.22
2022-12-27T06:53:38.494Z,101027.56
2022-12-27T06:56:41.144Z,101033.34
2022-12-27T06:59:44.058Z,100999.78
2022-12-27T07:02:49.071Z,101033.16
2022-12-27T07:05:51.552Z,101031.47
2022-12-27T07:08:55.152Z,101031.03
2022-12-27T07:11:57.562Z,101039.53
2022-12-27T07:15:00.028Z,101049.31
2022-12-27T07:18:02.521Z,101042.66
2022-12-27T07:21:06.582Z,101058.97
2022-12-27T07:24:09.203Z,101053.50
2022-12-27T07:27:11.599Z,101079.75
2022-12-27T07:30:14.222Z,101066.78
2022-12-27T07:33:16.736Z,101087.00
2022-12-27T07:36:22.251Z,101095.56
2022-12-27T07:39:24.701Z,101099.88
2022-12-27T07:42:28.782Z,101107.31
2022-12-27T07:45:32.133Z,101105.25
2022-12-27T07:48:35.021Z,101108.50
2022-12-27T07:51:37.672Z,101110.09
2022-12-27T07:54:41.814Z,101126.47
2022-12-27T07:57:44.240Z,101137.28
2022-12-27T08:00:48.251Z,101138.66
2022-12-27T08:03:51.160Z,101144.88
2022-12-27T08:06:56.668Z,101145.41
2022-12-27T08:09:59.567Z,101153.03
2022-12-27T08:13:01.971Z,101167.56
2022-12-27T08:16:05.184Z,101163.34
2022-12-27T08:19:08.881Z,101187.38
2022-12-27T08:22:11.359Z,101191.38
2022-12-27T08:25:13.734Z,101197.41
2022-12-27T08:28:17.850Z,101214.88
2022-12-27T08:31:20.266Z,101211.56
2022-12-27T08:34:22.766Z,101241.53
2022-12-27T08:37:25.275Z,101243.09
2022-12-27T08:40:27.781Z,101248.31
2022-12-27T08:43:30.578Z,101257.72
2022-12-27T08:46:33.444Z,101238.16
2022-12-27T08:49:35.986Z,101242.84
2022-12-27T08:52:38.370Z,101251.94
2022-12-27T08:55:40.829Z,101270.28
2022-12-27T08:58:43.652Z,101259.22
2022-12-27T09:01:46.420Z,101244.34
2022-12-27T09:04:49.313Z,101259.59
2022-12-27T09:07:52.335Z,101264.47
2022-12-27T09:10:54.928Z,101258.06
2022-12-27T09:14:00.064Z,101261.09
2022-12-27T09:17:02.569Z,101236.03
2022-12-27T09:20:06.291Z,101256.28
2022-12-27T09:23:08.814Z,101265.44
2022-12-27T09:26:17.675Z,101272.16
2022-12-27T09:29:20.353Z,101277.78
2022-12-27T09:32:27.442Z,101270.88
2022-12-27T09:35:30.203Z,101273.38
2022-12-27T09:38:34.984Z,101272.00
2022-12-27T09:45:16.217Z,101282.19
2022-12-27T09:48:34.013Z,101272.47
2022-12-27T09:52:02.628Z,101294.22
2022-12-27T09:55:17.822Z,101311.38
2022-12-27T09:58:33.914Z,101325.00
2022-12-27T10:01:40.669Z,101334.63
2022-12-27T10:05:18.451Z,101335.78
2022-12-27T10:08:12.930Z,101356.47
2022-12-27T10:11:36.786Z,101339.22
2022-12-27T10:15:06.860Z,101337.47
2022-12-27T10:18:12.568Z,101361.44
2022-12-27T10:21:26.783Z,101354.25
2022-12-27T10:24:51.953Z,101363.22
2022-12-27T10:28:00.040Z,101337.75
2022-12-27T10:31:04.057Z,101355.94
2022-12-27T10:34:10.699Z,101364.28
2022-12-27T10:37:16.587Z,101367.09
2022-12-27T10:40:46.424Z,101364.31
2022-12-27T10:43:53.761Z,101374.56
2022-12-27T10:46:57.237Z,101373.22
2022-12-27T10:50:11.675Z,101373.53
2022-12-27T10:53:34.764Z,101392.50
2022-12-27T10:56:41.469Z,101372.94
2022-12-27T10:59:44.579Z,101351.84
2022-12-27T11:02:54.648Z,101374.25
2022-12-27T11:06:03.182Z,101370.69
2022-12-27T11:09:25.885Z,101354.13
2022-12-27T11:12:33.008Z,101355.09
2022-12-27T11:15:38.006Z,101367.69
2022-12-27T11:18:46.150Z,101342.03
2022-12-27T11:21:49.803Z,101354.50
2022-12-27T11:24:55.981Z,101368.38
2022-12-27T11:28:03.137Z,101369.31
2022-12-27T11:31:18.089Z,101380.81
2022-12-27T11:34:36.767Z,101390.84
2022-12-27T11:37:40.050Z,101384.63
2022-12-27T11:40:42.818Z,101389.94
2022-12-27T11:43:48.389Z,101378.22
2022-12-27T11:47:03.938Z,101378.81
2022-12-27T11:50:28.253Z,101374.31
2022-12-27T11:54:02.430Z,101373.97
2022-12-27T11:57:04.879Z,101376.88
2022-12-27T12:00:24.752Z,101378.19
2022-12-27T12:03:50.108Z,101372.25
2022-12-27T12:06:59.303Z,101371.34
2022-12-27T12:10:11.187Z,101380.03
2022-12-27T12:13:13.566Z,101382.66
2022-12-27T12:16:45.072Z,101386.69
2022-12-27T12:20:04.088Z,101398.19
2022-12-27T12:23:12.341Z,101381.16
2022-12-27T12:26:22.293Z,101384.78
2022-12-27T12:30:03.673Z,101399.75
2022-12-27T12:33:21.482Z,101409.22
2022-12-27T12:36:41.586Z,101385.56
2022-12-27T12:40:26.508Z,101377.31
2022-12-27T12:43:59.639Z,101384.19
2022-12-27T12:47:37.339Z,101372.72
2022-12-27T12:51:24.227Z,101362.16
2022-12-27T12:55:04.099Z,101371.84
2022-12-27T12:58:27.909Z,101394.09
2022-12-27T13:01:56.380Z,101390.47
2022-12-27T13:05:11.278Z,101406.91
2022-12-27T13:08:23.397Z,101410.81
2022-12-27T13:11:37.902Z,101403.59
2022-12-27T13:15:06.691Z,101405.06
2022-12-27T13:18:30.600Z,101396.97
2022-12-27T13:21:47.914Z,101400.59
2022-12-27T13:25:18.066Z,101415.06
2022-12-27T13:28:31.362Z,101407.34
2022-12-27T13:31:49.126Z,101422.72
2022-12-27T13:35:21.719Z,101407.56
2022-12-27T13:39:11.787Z,101417.50
2022-12-27T13:42:44.813Z,101429.56
2022-12-27T13:46:05.735Z,101431.75
2022-12-27T13:49:47.931Z,101433.38
2022-12-27T13:53:00.165Z,101437.84
2022-12-27T13:56:52.828Z,101429.91
2022-12-27T13:59:53.024Z,101411.75
2022-12-27T14:03:29.514Z,101435.53
2022-12-27T14:07:04.091Z,101449.25
2022-12-27T14:10:28.475Z,101457.75
2022-12-27T14:13:41.624Z,101449.22
2022-12-27T14:17:18.115Z,101472.53
2022-12-27T14:20:54.861Z,101460.50
2022-12-27T14:24:40.839Z,101482.38
2022-12-27T14:28:03.204Z,101485.78
2022-12-27T14:31:22.541Z,101489.78
2022-12-27T14:34:58.927Z,101467.75
2022-12-27T14:38:20.670Z,101483.00
2022-12-27T14:42:00.253Z,101485.16
2022-12-27T14:45:24.583Z,101489.06
2022-12-27T14:48:39.315Z,101496.78
2022-12-27T14:52:00.050Z,101508.84
2022-12-27T14:55:31.860Z,101502.56
2022-12-27T14:58:51.639Z,101507.81
2022-12-27T15:02:06.659Z,101522.00
2022-12-27T15:05:46.355Z,101517.28
2022-12-27T15:09:27.575Z,101529.81
2022-12-27T15:12:58.362Z,101535.41
2022-12-27T15:16:28.107Z,101534.13
2022-12-27T15:19:53.025Z,101535.78
2022-12-27T15:23:10.681Z,101530.09
2022-12-27T15:26:40.833Z,101536.41
2022-12-27T15:29:49.704Z,101522.59
2022-12-27T15:33:06.805Z,101534.97
2022-12-27T15:36:17.926Z,101534.72
2022-12-27T15:39:38.358Z,101556.53
2022-12-27T15:42:56.390Z,101553.56
2022-12-27T15:46:14.112Z,101559.03
2022-12-27T15:49:55.449Z,101553.31
2022-12-27T15:53:30.372Z,101549.56
2022-12-27T15:56:57.171Z,101557.41
2022-12-27T16:00:33.380Z,101560.13
2022-12-27T16:03:39.271Z,101564.06
2022-12-27T16:06:48.364Z,101568.78
2022-12-27T16:09:50.955Z,101568.78
2022-12-27T16:12:55.054Z,101598.38
2022-12-27T16:15:58.053Z,101574.53
2022-12-27T16:19:28.367Z,101610.59
2022-12-27T16:22:35.672Z,101599.06
2022-12-27T16:25:41.137Z,101592.84
2022-12-27T16:28:59.676Z,101607.75
2022-12-27T16:32:23.639Z,101624.72
2022-12-27T16:35:26.153Z,101641.13
2022-12-27T16:38:30.636Z,101631.50
2022-12-27T16:41:54.941Z,101637.75
2022-12-27T16:45:22.628Z,101629.03
2022-12-27T16:49:01.915Z,101624.72
2022-12-27T16:52:27.314Z,101631.75
2022-12-27T16:55:58.105Z,101633.66
2022-12-27T16:59:00.953Z,101626.59
2022-12-27T17:02:03.709Z,101610.47
2022-12-27T17:05:15.779Z,101635.13
2022-12-27T17:08:21.136Z,101639.22
2022-12-27T17:11:32.685Z,101635.53
2022-12-27T17:14:38.227Z,101638.91
2022-12-27T17:17:45.539Z,101641.84
2022-12-27T17:21:02.167Z,101652.13
2022-12-27T17:24:15.591Z,101656.59
2022-12-27T17:27:48.972Z,101645.22
2022-12-27T17:31:22.555Z,101662.53
2022-12-27T17:34:41.139Z,101653.56
2022-12-27T17:38:14.682Z,101657.19
2022-12-27T17:41:47.655Z,101667.72
2022-12-27T17:44:55.980Z,101668.50
2022-12-27T17:48:25.393Z,101673.47
2022-12-27T17:51:31.354Z,101673.44
2022-12-27T17:54:52.726Z,101659.59
2022-12-27T17:57:56.604Z,101632.78
2022-12-27T18:01:02.297Z,101658.31
2022-12-27T18:04:06.656Z,101653.91
2022-12-27T18:07:13.748Z,101658.53
2022-12-27T18:10:27.704Z,101645.75
2022-12-27T18:13:34.122Z,101666.63
2022-12-27T18:16:39.963Z,101672.53
2022-12-27T18:19:42.891Z,101662.78
2022-12-27T18:22:45.595Z,101655.84
2022-12-27T18:25:47.955Z,101688.75
2022-12-27T18:28:50.852Z,101688.09
2022-12-27T18:31:55.764Z,101679.72
2022-12-27T18:35:03.063Z,101672.63
2022-12-27T18:38:08.285Z,101678.13
2022-12-27T18:41:15.260Z,101675.56
2022-12-27T18:44:26.847Z,101672.28
2022-12-27T18:47:35.540Z,101657.13
2022-12-27T18:50:49.263Z,101684.66
2022-12-27T18:53:51.826Z,101671.94
2022-12-27T18:56:58.854Z,101693.75
2022-12-27T19:00:25.197Z,101692.22
2022-12-27T19:03:28.956Z,101697.59
2022-12-27T19:06:31.980Z,101691.06
2022-12-27T19:09:39.237Z,101686.28
2022-12-27T19:12:43.925Z,101668.78
2022-12-27T19:15:47.079Z,101688.84
2022-12-27T19:18:56.375Z,101681.59
2022-12-27T19:21:59.130Z,101676.59
2022-12-27T19:25:06.716Z,101680.69
2022-12-27T19:28:09.452Z,101680.91
2022-12-27T19:31:22.034Z,101684.75
2022-12-27T19:34:28.921Z,101690.09
2022-12-27T19:37:33.522Z,101677.38
2022-12-27T19:40:36.057Z,101694.38
2022-12-27T19:43:42.582Z,101674.97
2022-12-27T19:46:45.673Z,101658.69
2022-12-27T19:49:48.462Z,101676.63
2022-12-27T19:52:51.179Z,101679.38
2022-12-27T19:55:53.646Z,101676.03
2022-12-27T19:58:56.368Z,101676.31
2022-12-27T20:01:59.298Z,101695.50
2022-12-27T20:05:01.967Z,101677.28
2022-12-27T20:08:06.337Z,101676.06
2022-12-27T20:11:14.945Z,101679.53
2022-12-27T20:14:18.074Z,101686.63
2022-12-27T20:17:20.550Z,101711.41
2022-12-27T20:20:23.091Z,101681.63
2022-12-27T20:23:25.972Z,101684.91
2022-12-27T20:26:29.411Z,101655.09
2022-12-27T20:29:32.126Z,101684.13
2022-12-27T20:32:34.702Z,101659.59
2022-12-27T20:35:37.678Z,101687.97
2022-12-27T20:38:40.425Z,101695.16
2022-12-27T20:41:42.853Z,101717.16
2022-12-27T20:44:45.335Z,101688.31
2022-12-27T20:47:48.271Z,101707.25
2022-12-27T20:50:51.347Z,101696.72
2022-12-27T20:53:56.805Z,101715.53
2022-12-27T20:56:59.342Z,101699.97
2022-12-27T21:00:03.899Z,101705.41
2022-12-27T21:03:06.649Z,101705.47
2022-12-27T21:06:15.997Z,101702.22
2022-12-27T21:09:18.681Z,101702.28
2022-12-27T21:12:21.134Z,101716.03
2022-12-27T21:15:24.176Z,101704.91
2022-12-27T21:18:27.049Z,101721.47
2022-12-27T21:21:29.944Z,101693.50
2022-12-27T21:24:33.411Z,101736.59
2022-12-27T21:27:35.999Z,101719.72
2022-12-27T21:30:38.486Z,101735.25
2022-12-27T21:33:41.531Z,101737.91
2022-12-27T21:36:44.347Z,101739.63
2022-12-27T21:39:47.414Z,101724.63
2022-12-27T21:42:50.382Z,101721.75
2022-12-27T21:45:53.023Z,101709.56
2022-12-27T21:49:05.542Z,101713.28
2022-12-27T21:52:08.421Z,101750.09
2022-12-27T21:55:10.863Z,101732.19
2022-12-27T21:58:13.496Z,101734.66
2022-12-27T22:01:21.511Z,101731.69
2022-12-27T22:04:24.140Z,101729.81
2022-12-27T22:07:26.811Z,101736.47
2022-12-27T22:10:29.287Z,101725.75
2022-12-27T22:13:33.025Z,101715.31
2022-12-27T22:16:38.158Z,101713.69
2022-12-27T22:19:40.564Z,101751.50
2022-12-27T22:22:43.174Z,101762.84
2022-12-27T22:25:45.712Z,101741.28
2022-12-27T22:28:48.730Z,101745.06
2022-12-27T22:31:51.186Z,101741.69
2022-12-27T22:34:53.624Z,101740.78
2022-12-27T22:37:56.049Z,101744.06
2022-12-27T22:41:08.408Z,101731.16
2022-12-27T22:44:13.471Z,101740.06
2022-12-27T22:47:26.254Z,101744.34
2022-12-27T22:50:29.757Z,101730.03
2022-12-27T22:53:32.942Z,101707.72
2022-12-27T22:56:40.463Z,101732.19
2022-12-27T22:59:43.515Z,101741.06
2022-12-27T23:02:47.308Z,101709.88
2022-12-27T23:05:57.946Z,101714.25
2022-12-27T23:09:01.267Z,101735.63
2022-12-27T23:12:04.319Z,101719.78
2022-12-27T23:15:07.485Z,101738.38
2022-12-27T23:18:09.924Z,101712.00
2022-12-27T23:21:21.381Z,101708.31
2022-12-27T23:24:26.692Z,101705.66
2022-12-27T23:27:29.407Z,101728.97
2022-12-27T23:30:32.053Z,101721.59
2022-12-27T23:33:34.794Z,101706.25
2022-12-27T23:36:37.285Z,101708.50
2022-12-27T23:39:39.675Z,101710.97
2022-12-27T23:42:42.069Z,101699.59
2022-12-27T23:45:44.546Z,101710.25
2022-12-27T23:48:47.472Z,101671.38
2022-12-27T23:51:51.784Z,101694.72
2022-12-27T23:54:54.800Z,101689.81
2022-12-27T23:57:58.390Z,101678.53
